Time;durP1;ratioP1;P1;durP2;ratioP2;P2;SDS_P1;SDS_P2;PMS_P1;PMS_P2;Temp;Humidity;BMP_temperature;BMP_pressure;BME280_temperature;BME280_humidity;BME280_pressure;Samples;Min_cycle;Max_cycle;Signal;HPM_P1;HPM_P2
2023/05/19 00:02:04;;;;;;;10.48;5.85;;;;;;;9.19;70.28;102465.66;4841699;29;20174;-91
2023/05/19 00:17:54;;;;;;;13.00;6.00;;;;;;;9.06;70.92;102462.59;4823280;29;20049;-90
2023/05/19 00:23:48;;;;;;;10.43;5.67;;;;;;;9.01;71.10;102452.25;4822943;29;20045;-90
2023/05/19 00:26:16;;;;;;;10.45;6.00;;;;;;;9.00;71.39;102450.56;4841987;29;20128;-90
2023/05/19 00:32:16;;;;;;;12.98;5.95;;;;;;;8.95;70.93;102445.66;4898759;29;20051;-90
2023/05/19 00:38:03;;;;;;;15.23;5.60;;;;;;;8.89;72.14;102432.78;4898367;29;20040;-90
2023/05/19 00:43:53;;;;;;;12.50;6.00;;;;;;;8.83;72.05;102433.44;4804804;29;20065;-91
2023/05/19 00:49:43;;;;;;;12.85;6.13;;;;;;;8.80;74.00;102432.91;4804573;29;20050;-90
2023/05/19 00:55:35;;;;;;;9.43;5.60;;;;;;;8.70;76.07;102430.38;4808155;29;20061;-90
2023/05/19 00:58:03;;;;;;;11.93;6.03;;;;;;;8.66;76.58;102439.81;4792662;29;20464;-90
2023/05/19 01:00:38;;;;;;;13.25;5.90;;;;;;;8.65;77.02;102438.09;4818341;29;20049;-90
2023/05/19 01:03:14;;;;;;;11.55;5.75;;;;;;;8.62;78.04;102441.97;4870161;29;20051;-89
2023/05/19 01:05:46;;;;;;;16.45;6.45;;;;;;;8.60;78.63;102442.16;4885417;29;20071;-90
2023/05/19 01:08:21;;;;;;;12.82;5.80;;;;;;;8.58;78.76;102436.06;4885214;29;20040;-90
2023/05/19 01:10:47;;;;;;;10.67;5.20;;;;;;;8.58;80.01;102436.06;4885370;29;20032;-90
2023/05/19 01:13:16;;;;;;;10.85;5.75;;;;;;;8.53;80.36;102432.16;4884695;29;20064;-91
2023/05/19 01:16:00;;;;;;;10.73;5.88;;;;;;;8.50;80.31;102429.78;4885296;29;20086;-90
2023/05/19 01:18:37;;;;;;;10.67;5.17;;;;;;;8.44;81.92;102436.69;4884962;29;20063;-91
2023/05/19 01:21:35;;;;;;;12.25;5.53;;;;;;;8.40;80.94;102432.56;4901843;29;20092;-90
2023/05/19 01:24:17;;;;;;;10.77;5.32;;;;;;;8.39;82.72;102433.59;4901677;29;20043;-90
2023/05/19 01:27:14;;;;;;;10.50;5.43;;;;;;;8.33;83.63;102432.38;4885335;29;20071;-89
2023/05/19 01:33:07;;;;;;;15.07;4.90;;;;;;;8.26;84.94;102428.63;4901412;29;20425;-91
2023/05/19 01:35:35;;;;;;;12.20;4.75;;;;;;;8.20;85.52;102438.22;4885130;29;20485;-91
2023/05/19 01:38:16;;;;;;;10.93;4.93;;;;;;;8.18;85.41;102428.56;4885084;29;20500;-90
2023/05/19 01:40:43;;;;;;;8.88;5.00;;;;;;;8.18;87.04;102437.53;4869793;29;20048;-90
2023/05/19 01:43:17;;;;;;;12.85;5.00;;;;;;;8.12;86.71;102431.91;4884431;29;20132;-91
2023/05/19 01:45:47;;;;;;;10.00;5.03;;;;;;;8.09;86.97;102425.00;4885145;29;20037;-91
2023/05/19 01:48:16;;;;;;;9.45;5.10;;;;;;;8.10;88.05;102432.06;4884822;29;20036;-91
2023/05/19 01:50:45;;;;;;;12.18;5.05;;;;;;;8.03;88.13;102420.19;4869138;29;20041;-91
2023/05/19 01:53:24;;;;;;;11.18;4.97;;;;;;;7.99;88.23;102417.00;4884413;29;20037;-91
2023/05/19 01:55:54;;;;;;;13.07;5.28;;;;;;;7.96;88.62;102417.31;4901378;29;20040;-91
2023/05/19 01:58:34;;;;;;;10.90;5.20;;;;;;;7.95;89.42;102417.47;4883921;29;20039;-90
2023/05/19 02:01:25;;;;;;;15.63;5.43;;;;;;;7.95;88.62;102426.41;4884890;29;20036;-91
2023/05/19 02:04:08;;;;;;;13.60;5.35;;;;;;;7.91;88.78;102414.22;4883869;29;20025;-91
2023/05/19 02:07:00;;;;;;;9.52;5.20;;;;;;;7.87;89.80;102423.69;4901075;29;20040;-91
2023/05/19 02:09:49;;;;;;;10.55;4.90;;;;;;;7.83;88.96;102412.31;4884342;29;20037;-90
2023/05/19 02:12:29;;;;;;;9.97;4.87;;;;;;;7.83;90.18;102417.72;4884262;29;20107;-91
2023/05/19 02:18:18;;;;;;;8.23;4.65;;;;;;;7.72;90.32;102415.28;4807063;29;20099;-90
2023/05/19 02:21:01;;;;;;;9.80;5.40;;;;;;;7.71;91.08;102413.59;4882144;29;20048;-90
2023/05/19 02:23:31;;;;;;;13.82;5.30;;;;;;;7.65;91.84;102411.53;4870047;29;20467;-91
2023/05/19 02:26:07;;;;;;;;;;;;;;;;;;;;;
2023/05/19 02:28:36;;;;;;;11.45;5.40;;;;;;;7.59;91.10;102404.91;4901285;29;20376;-90
2023/05/19 02:31:09;;;;;;;13.00;5.15;;;;;;;7.62;92.32;102410.00;4883630;29;20032;-90
2023/05/19 02:33:37;;;;;;;13.63;5.80;;;;;;;7.57;91.75;102408.75;4868764;29;20488;-90
2023/05/19 02:36:13;;;;;;;10.60;5.70;;;;;;;7.54;92.74;102409.91;4883175;29;20559;-90
2023/05/19 02:38:54;;;;;;;11.87;5.43;;;;;;;7.54;92.91;102407.22;4883336;29;20041;-90
2023/05/19 02:41:21;;;;;;;14.20;5.57;;;;;;;7.51;92.80;102402.13;4869699;29;20079;-90
2023/05/19 02:44:15;;;;;;;13.00;5.47;;;;;;;7.51;93.22;102404.84;4883886;29;20047;-91
2023/05/19 02:46:48;;;;;;;13.88;5.07;;;;;;;7.47;92.47;102398.91;4881010;29;20051;-90
2023/05/19 02:49:16;;;;;;;12.50;5.50;;;;;;;7.46;93.49;102409.88;4883009;29;20036;-91
2023/05/19 02:52:01;;;;;;;10.63;5.47;;;;;;;7.41;94.04;102396.84;4867479;29;20102;-91
2023/05/19 02:54:48;;;;;;;11.95;5.60;;;;;;;7.41;94.32;102402.25;4883408;29;20131;-90
2023/05/19 02:57:24;;;;;;;9.05;5.82;;;;;;;7.37;94.13;102390.88;4883422;29;20525;-90
2023/05/19 02:59:59;;;;;;;10.48;5.80;;;;;;;7.36;94.77;102401.84;4860315;29;20509;-91
2023/05/19 03:02:35;;;;;;;10.18;5.53;;;;;;;7.32;95.36;102389.66;4844849;29;20128;-90
2023/05/19 03:05:09;;;;;;;12.60;5.80;;;;;;;7.31;95.45;102396.06;4860237;29;20049;-90
2023/05/19 03:07:36;;;;;;;14.75;6.18;;;;;;;7.26;95.91;102392.97;4845050;29;20041;-90
2023/05/19 03:10:12;;;;;;;12.18;5.28;;;;;;;7.22;96.24;102392.47;4844681;29;20040;-91
2023/05/19 03:17:12;;;;;;;13.32;6.40;;;;;;;7.18;94.87;102405.41;4802036;29;20099;-90
2023/05/19 03:19:40;;;;;;;12.90;5.70;;;;;;;7.15;96.20;102404.88;4818137;29;20054;-90
2023/05/19 03:22:34;;;;;;;14.73;5.68;;;;;;;7.17;96.79;102402.84;4845436;29;20045;-91
2023/05/19 03:28:40;;;;;;;13.13;5.85;;;;;;;7.13;97.15;102405.03;4899281;29;20036;-90
2023/05/19 03:31:08;;;;;;;14.27;5.75;;;;;;;7.09;97.92;102411.72;4869093;29;20134;-90
2023/05/19 03:33:37;;;;;;;11.07;5.43;;;;;;;7.09;97.87;102408.19;4883303;29;20029;-90
2023/05/19 03:36:11;;;;;;;12.32;6.03;;;;;;;7.07;98.10;102407.47;4867764;29;20032;-91
2023/05/19 03:38:37;;;;;;;11.30;5.78;;;;;;;7.09;98.22;102414.44;4882844;29;20033;-91
2023/05/19 03:41:05;;;;;;;13.90;5.80;;;;;;;7.08;98.10;102420.81;4882616;29;20397;-91
2023/05/19 03:43:42;;;;;;;11.40;5.70;;;;;;;7.05;98.78;102407.63;4882226;29;20044;-91
2023/05/19 03:46:20;;;;;;;12.98;6.10;;;;;;;7.08;99.00;102420.81;4883153;29;20108;-90
2023/05/19 03:48:53;;;;;;;11.73;5.82;;;;;;;7.04;98.89;102416.72;4867177;29;20037;-90
2023/05/19 03:51:28;;;;;;;;;;;;;;;;;;;;;
2023/05/19 04:00:36;;;;;;;13.48;5.97;;;;;;;7.04;99.47;102419.44;4899111;29;20096;-91
2023/05/19 04:06:44;;;;;;;10.35;5.88;;;;;;;6.99;99.56;102411.78;4859453;29;20039;-91
2023/05/19 04:09:18;;;;;;;13.95;6.60;;;;;;;7.00;100.00;102413.50;4882170;29;20156;-91
2023/05/19 04:12:04;;;;;;;17.17;5.77;;;;;;;7.01;100.00;102415.22;4848724;29;20142;-91
2023/05/19 04:14:32;;;;;;;11.25;6.50;;;;;;;7.02;100.00;102413.34;4867148;29;20147;-91
2023/05/19 04:20:18;;;;;;;13.30;6.50;;;;;;;7.11;100.00;102411.56;4848860;29;20060;-91
2023/05/19 04:22:48;;;;;;;19.73;6.68;;;;;;;7.12;100.00;102406.03;4867012;29;20036;-91
2023/05/19 04:25:24;;;;;;;18.87;7.07;;;;;;;7.15;100.00;102421.91;4882242;29;20458;-91
2023/05/19 04:28:17;;;;;;;;;;;;;;;;;;;;;
2023/05/19 04:30:51;;;;;;;11.27;6.50;;;;;;;7.20;100.00;102410.66;4903709;29;20036;-90
2023/05/19 04:33:20;;;;;;;14.38;6.78;;;;;;;7.26;100.00;102412.72;4885810;29;20033;-89
2023/05/19 04:35:45;;;;;;;12.57;6.38;;;;;;;7.23;100.00;102414.91;4870248;29;20047;-89
2023/05/19 04:38:23;;;;;;;12.43;6.80;;;;;;;7.28;100.00;102417.97;4885661;29;20028;-90
2023/05/19 04:40:50;;;;;;;16.15;6.63;;;;;;;7.26;100.00;102417.28;4885466;29;20033;-90
2023/05/19 04:43:18;;;;;;;11.03;6.30;;;;;;;7.28;100.00;102409.88;4886242;29;20365;-90
2023/05/19 04:45:50;;;;;;;10.63;6.32;;;;;;;7.32;100.00;102409.41;4886005;29;20116;-90
2023/05/19 04:48:17;;;;;;;16.58;7.07;;;;;;;7.36;100.00;102418.88;4870168;29;20050;-90
2023/05/19 04:50:50;;;;;;;18.63;7.65;;;;;;;7.38;100.00;102424.13;4885548;29;20033;-90
2023/05/19 04:53:16;;;;;;;15.30;7.07;;;;;;;7.42;100.00;102420.13;4885308;29;20032;-90
2023/05/19 04:55:51;;;;;;;18.40;7.17;;;;;;;7.47;100.00;102422.34;4885580;29;20119;-90
2023/05/19 04:58:19;;;;;;;18.45;6.85;;;;;;;7.54;100.00;102420.72;4885526;29;20032;-90
2023/05/19 05:00:45;;;;;;;12.27;7.38;;;;;;;7.56;100.00;102418.72;4884965;29;20062;-90
2023/05/19 05:03:13;;;;;;;15.00;7.53;;;;;;;7.63;100.00;102418.94;4884462;29;20544;-89
2023/05/19 05:08:47;;;;;;;19.13;7.47;;;;;;;7.70;100.00;102420.00;4808226;29;20049;-90
2023/05/19 05:14:38;;;;;;;18.38;7.43;;;;;;;7.80;100.00;102422.63;4901800;29;20118;-90
2023/05/19 05:17:17;;;;;;;16.77;8.07;;;;;;;7.84;100.00;102418.56;4884887;29;20028;-91
2023/05/19 05:19:53;;;;;;;19.48;8.05;;;;;;;7.87;100.00;102421.81;4883835;29;20048;-90
2023/05/19 05:22:19;;;;;;;16.10;8.13;;;;;;;7.95;100.00;102422.88;4869267;29;20063;-83
2023/05/19 05:24:45;;;;;;;16.98;7.55;;;;;;;8.00;100.00;102428.63;4885141;29;20438;-82
2023/05/19 05:27:10;;;;;;;17.50;8.17;;;;;;;8.05;100.00;102423.63;4901707;29;20033;-82
2023/05/19 05:29:39;;;;;;;15.27;7.83;;;;;;;8.16;100.00;102433.28;4884706;29;20532;-82
2023/05/19 05:32:04;;;;;;;15.52;7.80;;;;;;;8.23;100.00;102435.19;4885169;29;20024;-82
2023/05/19 05:34:30;;;;;;;14.90;7.93;;;;;;;8.26;100.00;102434.88;4884386;29;20036;-83
2023/05/19 05:36:56;;;;;;;13.60;7.90;;;;;;;8.32;100.00;102430.66;4869784;29;20135;-83
2023/05/19 05:39:21;;;;;;;17.20;7.43;;;;;;;8.38;99.18;102431.88;4883734;29;20044;-83
2023/05/19 05:41:47;;;;;;;19.27;8.35;;;;;;;8.46;99.09;102437.38;4900768;29;20035;-85
2023/05/19 05:44:12;;;;;;;17.27;7.90;;;;;;;8.53;98.80;102435.72;4853741;29;20052;-85
2023/05/19 05:46:40;;;;;;;14.83;7.83;;;;;;;8.57;98.42;102434.34;4883847;29;20044;-83
2023/05/19 05:49:07;;;;;;;16.70;7.50;;;;;;;8.66;98.11;102432.53;4900976;29;20036;-82
2023/05/19 05:51:33;;;;;;;12.70;7.35;;;;;;;8.74;98.18;102437.97;4884058;29;20035;-82
2023/05/19 05:53:59;;;;;;;16.97;8.37;;;;;;;8.83;97.88;102433.44;4900740;29;20025;-83
2023/05/19 05:56:25;;;;;;;15.75;8.15;;;;;;;8.94;97.84;102426.88;4853293;29;20048;-83
2023/05/19 05:58:51;;;;;;;13.32;7.53;;;;;;;9.07;96.67;102437.22;4868249;29;20037;-82
2023/05/19 06:01:16;;;;;;;16.40;7.50;;;;;;;9.21;96.43;102439.28;4901147;29;20033;-83
2023/05/19 06:03:45;;;;;;;14.60;7.78;;;;;;;9.36;95.61;102434.03;4884165;29;20434;-83
2023/05/19 06:06:11;;;;;;;13.97;7.13;;;;;;;9.51;94.28;102436.91;4901136;29;20029;-82
2023/05/19 06:08:36;;;;;;;16.73;7.30;;;;;;;9.64;93.04;102437.25;4884281;29;20041;-83
2023/05/19 06:11:07;;;;;;;15.17;7.43;;;;;;;9.76;91.91;102440.47;4868393;29;20029;-82
2023/05/19 06:13:36;;;;;;;10.88;6.97;;;;;;;9.91;91.35;102446.03;4869230;29;20033;-82
2023/05/19 06:16:02;;;;;;;17.35;7.43;;;;;;;10.03;91.31;102443.81;4883914;29;20028;-82
2023/05/19 06:18:28;;;;;;;14.50;7.22;;;;;;;10.11;90.33;102441.09;4900803;29;20029;-82
2023/05/19 06:20:53;;;;;;;16.07;7.10;;;;;;;10.18;90.02;102441.22;4883170;29;20056;-82
2023/05/19 06:23:19;;;;;;;16.03;7.03;;;;;;;10.25;89.01;102438.69;4900480;29;20028;-83
2023/05/19 06:25:44;;;;;;;17.52;8.20;;;;;;;10.31;89.57;102436.09;4867931;29;20568;-83
2023/05/19 06:28:10;;;;;;;14.97;7.10;;;;;;;10.40;88.64;102438.81;4900664;29;20055;-83
2023/05/19 06:30:35;;;;;;;13.17;7.30;;;;;;;10.41;88.63;102438.66;4883576;29;20051;-82
2023/05/19 06:33:02;;;;;;;11.18;6.70;;;;;;;10.43;87.67;102439.31;4867727;29;20230;-82
2023/05/19 06:35:27;;;;;;;12.55;6.78;;;;;;;10.47;87.77;102447.97;4883343;29;20033;-82
2023/05/19 06:37:55;;;;;;;13.37;7.40;;;;;;;10.46;87.58;102441.66;4868062;29;20047;-83
2023/05/19 06:40:20;;;;;;;14.20;6.97;;;;;;;10.49;87.44;102449.44;4852606;29;20047;-82
2023/05/19 06:42:46;;;;;;;17.97;7.43;;;;;;;10.50;87.11;102442.19;4883038;29;20205;-82
2023/05/19 06:45:11;;;;;;;14.00;6.55;;;;;;;10.51;86.42;102441.13;4900067;29;20092;-83
2023/05/19 06:47:37;;;;;;;12.60;6.93;;;;;;;10.55;86.25;102439.75;4882902;29;20097;-83
2023/05/19 06:50:08;;;;;;;12.77;7.33;;;;;;;10.57;86.95;102437.75;4899942;29;20478;-88
2023/05/19 06:52:33;;;;;;;15.35;7.00;;;;;;;10.61;87.26;102439.06;4884001;29;20025;-89
2023/05/19 06:55:02;;;;;;;17.50;8.00;;;;;;;10.68;87.77;102439.22;4867271;29;20036;-88
2023/05/19 06:57:30;;;;;;;12.77;7.18;;;;;;;10.70;86.68;102439.88;4882789;29;20044;-89
2023/05/19 07:00:00;;;;;;;14.30;7.30;;;;;;;10.75;86.76;102439.31;4882930;29;20028;-89
2023/05/19 07:02:29;;;;;;;16.88;6.88;;;;;;;10.79;86.20;102446.97;4882431;29;20021;-88
2023/05/19 07:04:57;;;;;;;13.47;7.13;;;;;;;10.83;86.92;102442.00;4883788;29;20039;-88
2023/05/19 07:07:32;;;;;;;16.58;7.28;;;;;;;10.88;86.09;102442.34;4882678;29;20064;-88
2023/05/19 07:10:00;;;;;;;9.98;6.45;;;;;;;10.96;85.08;102436.00;4883003;29;20426;-88
2023/05/19 07:12:29;;;;;;;15.20;6.80;;;;;;;11.09;85.44;102438.09;4882384;29;20029;-88
2023/05/19 07:15:05;;;;;;;15.20;7.00;;;;;;;11.16;84.88;102430.94;4882867;29;20044;-88
2023/05/19 07:17:40;;;;;;;12.77;6.40;;;;;;;11.23;84.42;102435.50;4883270;29;20522;-88
2023/05/19 07:20:28;;;;;;;13.38;6.00;;;;;;;11.30;83.63;102435.59;4882384;29;20064;-89
2023/05/19 07:23:04;;;;;;;15.23;6.15;;;;;;;11.35;82.64;102440.47;4899729;29;20028;-89
2023/05/19 07:25:39;;;;;;;15.82;6.90;;;;;;;11.42;81.69;102438.72;4882710;29;20438;-88
2023/05/19 07:28:07;;;;;;;15.63;6.28;;;;;;;11.47;81.00;102428.16;4882422;29;20052;-89
2023/05/19 07:30:36;;;;;;;14.23;7.57;;;;;;;11.55;81.04;102430.81;4882111;29;20037;-89
2023/05/19 07:33:02;;;;;;;14.05;6.82;;;;;;;11.64;81.15;102437.00;4881944;29;20493;-89
2023/05/19 07:35:32;;;;;;;14.90;6.50;;;;;;;11.75;81.08;102436.56;4881856;29;20464;-89
2023/05/19 07:38:00;;;;;;;11.83;6.13;;;;;;;11.86;80.88;102438.00;4883169;29;20465;-89
2023/05/19 07:40:33;;;;;;;14.10;6.80;;;;;;;11.93;80.26;102436.25;4882915;29;20029;-89
2023/05/19 07:43:10;;;;;;;10.82;6.93;;;;;;;12.05;81.62;102435.81;4882246;29;20032;-89
2023/05/19 07:45:37;;;;;;;13.82;6.68;;;;;;;12.13;80.27;102424.00;4866918;29;20033;-89
2023/05/19 07:48:06;;;;;;;14.15;6.57;;;;;;;12.25;80.33;102430.63;4882056;29;20080;-89
2023/05/19 07:50:36;;;;;;;10.00;5.93;;;;;;;12.31;78.01;102429.03;4867017;29;20040;-89
2023/05/19 07:53:08;;;;;;;13.90;6.50;;;;;;;12.37;77.87;102428.28;4867301;29;20036;-89
2023/05/19 07:55:41;;;;;;;15.25;6.30;;;;;;;12.39;77.63;102420.81;4881721;29;20471;-89
2023/05/19 07:58:09;;;;;;;14.10;6.22;;;;;;;12.46;77.40;102416.28;4867251;29;20041;-89
2023/05/19 08:00:44;;;;;;;11.63;6.00;;;;;;;12.56;76.70;102425.00;4866147;29;20032;-89
2023/05/19 08:03:12;;;;;;;11.00;5.73;;;;;;;12.62;75.80;102417.94;4868274;29;20056;-89
2023/05/19 08:05:41;;;;;;;14.77;6.45;;;;;;;12.71;75.67;102418.66;4881739;29;20032;-88
2023/05/19 08:08:20;;;;;;;13.93;5.90;;;;;;;12.89;74.99;102429.13;4882070;29;20127;-89
2023/05/19 08:10:46;;;;;;;11.48;5.82;;;;;;;13.03;73.64;102421.97;4898558;29;20067;-89
2023/05/19 08:13:15;;;;;;;12.67;6.00;;;;;;;13.18;72.72;102417.28;4882452;29;20457;-89
2023/05/19 08:15:46;;;;;;;10.98;5.70;;;;;;;13.38;71.90;102419.41;4898278;29;20043;-89
2023/05/19 08:18:11;;;;;;;10.00;5.55;;;;;;;13.61;71.25;102411.84;4881981;29;20115;-89
2023/05/19 08:20:36;;;;;;;11.53;5.33;;;;;;;13.79;69.65;102407.75;4881452;29;20147;-89
2023/05/19 08:23:02;;;;;;;15.13;5.30;;;;;;;14.04;67.85;102397.25;4881643;29;20028;-89
2023/05/19 08:25:41;;;;;;;;;;;;;;;;;;;;;
2023/05/19 08:28:09;;;;;;;8.65;4.68;;;;;;;14.55;65.84;102399.56;4901402;29;20357;-89
2023/05/19 08:30:38;;;;;;;12.25;4.88;;;;;;;14.78;65.75;102401.19;4881784;29;20037;-89
2023/05/19 08:33:05;;;;;;;11.73;5.40;;;;;;;15.02;66.45;102396.19;4898081;29;20112;-89
2023/05/19 08:35:36;;;;;;;11.68;4.90;;;;;;;15.24;65.23;102399.59;4882324;29;20035;-89
2023/05/19 08:38:07;;;;;;;12.90;4.55;;;;;;;15.37;61.83;102385.91;4866102;29;20045;-89
2023/05/19 08:40:36;;;;;;;10.20;4.13;;;;;;;15.52;60.60;102387.59;4881171;29;20032;-89
2023/05/19 08:43:14;;;;;;;10.73;4.72;;;;;;;15.65;60.09;102379.38;4881642;29;20033;-89
2023/05/19 08:45:58;;;;;;;12.90;5.27;;;;;;;15.79;60.09;102381.06;4881648;29;20132;-90
2023/05/19 08:48:27;;;;;;;9.63;4.88;;;;;;;15.93;59.62;102378.34;4882292;29;20538;-89
2023/05/19 08:51:35;;;;;;;11.30;4.78;;;;;;;16.09;60.34;102382.47;4866438;29;20111;-89
2023/05/19 08:54:32;;;;;;;11.75;4.53;;;;;;;16.23;57.76;102370.44;4882255;29;20029;-89
2023/05/19 08:56:59;;;;;;;15.43;4.95;;;;;;;16.33;57.35;102369.13;4881238;29;20055;-90
2023/05/19 08:59:25;;;;;;;10.33;4.53;;;;;;;16.45;57.18;102370.97;4880908;29;20032;-89
2023/05/19 09:01:53;;;;;;;13.52;4.38;;;;;;;16.61;56.90;102363.31;4880914;29;20035;-89
2023/05/19 09:04:26;;;;;;;9.18;3.38;;;;;;;16.72;54.72;102365.34;4881504;29;20104;-90
2023/05/19 09:07:01;;;;;;;10.63;3.60;;;;;;;16.85;52.62;102369.91;4881508;29;20033;-89
2023/05/19 09:09:29;;;;;;;11.60;3.85;;;;;;;17.05;53.48;102361.59;4882033;29;20043;-89
2023/05/19 09:12:10;;;;;;;9.57;3.27;;;;;;;17.21;53.30;102359.38;4881475;29;20084;-89
2023/05/19 09:14:40;;;;;;;8.38;3.17;;;;;;;17.35;50.89;102352.72;4884467;29;20124;-89
2023/05/19 09:17:08;;;;;;;7.65;2.75;;;;;;;17.49;49.75;102350.69;4869990;29;20063;-89
2023/05/19 09:19:54;;;;;;;8.38;3.00;;;;;;;17.70;49.58;102346.66;4883958;29;20041;-89
2023/05/19 09:22:24;;;;;;;7.78;3.05;;;;;;;17.81;48.73;102342.34;4870193;29;20109;-89
2023/05/19 09:24:50;;;;;;;8.80;2.70;;;;;;;18.07;46.38;102338.50;4885083;29;20033;-89
2023/05/19 09:27:22;;;;;;;5.65;2.33;;;;;;;18.37;46.55;102341.28;4884697;29;20127;-89
2023/05/19 09:29:49;;;;;;;7.63;2.60;;;;;;;18.61;44.78;102338.63;4884634;29;20112;-89
2023/05/19 09:32:28;;;;;;;8.35;2.28;;;;;;;18.74;44.54;102335.69;4884765;29;20033;-89
2023/05/19 09:34:59;;;;;;;9.57;2.20;;;;;;;18.93;42.54;102335.66;4885154;29;20028;-89
2023/05/19 09:37:32;;;;;;;5.97;2.00;;;;;;;19.05;43.00;102331.00;4870019;29;20068;-89
2023/05/19 09:40:04;;;;;;;4.40;1.80;;;;;;;19.13;42.57;102329.00;4869469;29;20051;-90
2023/05/19 09:42:47;;;;;;;6.60;2.00;;;;;;;19.32;42.57;102327.81;4883923;29;20068;-89
2023/05/19 09:45:19;;;;;;;6.35;1.80;;;;;;;19.45;41.54;102335.00;4869873;29;20044;-90
2023/05/19 09:47:44;;;;;;;4.45;1.80;;;;;;;19.41;39.83;102339.31;4868185;29;20104;-89
2023/05/19 09:50:13;;;;;;;6.03;2.10;;;;;;;19.45;40.52;102329.50;4883819;29;20040;-89
2023/05/19 09:52:52;;;;;;;6.93;1.83;;;;;;;19.67;40.31;102332.47;4883397;29;20063;-90
2023/05/19 09:55:22;;;;;;;9.80;2.58;;;;;;;19.63;40.12;102331.28;4901025;29;20495;-90
2023/05/19 09:57:53;;;;;;;5.37;1.60;;;;;;;19.67;38.94;102331.66;4884014;29;20037;-90
2023/05/19 10:00:31;;;;;;;7.35;1.80;;;;;;;19.83;40.02;102344.72;4884132;29;20029;-90
2023/05/19 10:03:08;;;;;;;6.80;2.00;;;;;;;19.82;39.91;102340.28;4884733;29;20407;-90
2023/05/19 10:05:37;;;;;;;9.07;2.03;;;;;;;19.88;39.35;102335.72;4884258;29;20032;-89
2023/05/19 10:08:05;;;;;;;9.30;2.15;;;;;;;19.84;39.30;102334.53;4883850;29;20473;-90
2023/05/19 10:10:41;;;;;;;4.93;2.17;;;;;;;19.74;37.83;102327.69;4884092;29;20033;-90
2023/05/19 10:13:20;;;;;;;4.03;1.80;;;;;;;19.87;39.56;102321.13;4883930;29;20469;-90
2023/05/19 10:15:46;;;;;;;8.57;2.35;;;;;;;20.19;38.50;102330.88;4883985;29;20136;-90
2023/05/19 10:18:16;;;;;;;9.55;2.25;;;;;;;20.55;37.10;102331.56;4884195;29;20073;-90
2023/05/19 10:20:48;;;;;;;8.82;2.03;;;;;;;20.74;35.46;102324.78;4868255;29;20058;-90
2023/05/19 10:23:18;;;;;;;5.40;1.63;;;;;;;20.77;34.77;102321.53;4883932;29;20123;-90
2023/05/19 10:25:48;;;;;;;7.43;1.90;;;;;;;20.75;35.67;102329.22;4883710;29;20036;-89
2023/05/19 10:28:24;;;;;;;6.15;1.88;;;;;;;20.47;35.10;102321.78;4883848;29;20042;-91
2023/05/19 10:30:58;;;;;;;6.00;2.17;;;;;;;20.70;36.68;102322.75;4883229;29;20557;-89
2023/05/19 10:33:42;;;;;;;5.88;2.22;;;;;;;20.77;36.68;102317.94;4883476;29;20096;-89
2023/05/19 10:36:54;;;;;;;;;;;;;;;;;;;;;
2023/05/19 10:39:26;;;;;;;6.20;2.38;;;;;;;20.79;35.68;102316.59;4900642;29;20036;-89
2023/05/19 10:48:37;;;;;;;7.18;2.00;;;;;;;21.74;36.33;102304.84;4810319;29;20079;-91
2023/05/19 10:51:10;;;;;;;7.47;2.10;;;;;;;21.92;34.81;102300.94;4883818;29;20047;-91
2023/05/19 10:53:40;;;;;;;5.10;2.40;;;;;;;22.13;34.65;102299.28;4882986;29;20477;-90
2023/05/19 10:56:15;;;;;;;5.55;2.17;;;;;;;22.34;33.27;102296.78;4882839;29;20072;-90
2023/05/19 10:58:45;;;;;;;9.07;2.35;;;;;;;22.39;34.51;102302.34;4868940;29;20036;-90
2023/05/19 11:01:23;;;;;;;8.45;2.50;;;;;;;22.68;34.37;102296.56;4882529;29;20060;-90
2023/05/19 11:04:06;;;;;;;6.20;2.57;;;;;;;22.64;32.97;102298.16;4883234;29;20059;-88
2023/05/19 11:06:38;;;;;;;5.45;2.45;;;;;;;22.80;32.59;102293.63;4883147;29;20111;-87
2023/05/19 11:09:13;;;;;;;6.07;2.30;;;;;;;23.19;32.08;102298.94;4883105;29;20021;-88
2023/05/19 11:12:09;;;;;;;5.43;2.58;;;;;;;23.46;32.27;102288.59;4882439;29;20032;-88
2023/05/19 11:14:35;;;;;;;7.28;2.17;;;;;;;23.75;30.55;102290.94;4882769;29;20474;-88
2023/05/19 11:17:12;;;;;;;8.57;2.80;;;;;;;25.01;29.33;102278.78;4882812;29;20040;-88
2023/05/19 11:19:40;;;;;;;8.48;2.90;;;;;;;27.52;25.90;102287.97;4882864;29;20032;-88
2023/05/19 11:22:15;;;;;;;7.80;2.10;;;;;;;29.92;24.00;102290.81;4867231;29;20085;-88
2023/05/19 11:24:56;;;;;;;5.63;2.20;;;;;;;32.19;21.43;102279.34;4882461;29;20044;-88
2023/05/19 11:27:31;;;;;;;9.10;2.30;;;;;;;33.84;19.67;102282.91;4899667;29;20036;-88
2023/05/19 11:30:08;;;;;;;3.80;1.98;;;;;;;34.73;18.00;102284.66;4885617;29;20033;-88
2023/05/19 11:32:41;;;;;;;5.70;2.10;;;;;;;36.49;16.85;102283.16;4898914;29;20024;-88
2023/05/19 11:35:13;;;;;;;4.57;2.35;;;;;;;37.53;15.29;102277.44;4881900;29;20033;-88
2023/05/19 11:37:51;;;;;;;7.88;2.28;;;;;;;38.98;13.90;102274.81;4882063;29;20043;-86
2023/05/19 11:40:22;;;;;;;7.57;3.17;;;;;;;40.09;13.78;102272.94;4883049;29;20035;-87
2023/05/19 11:42:48;;;;;;;8.75;3.13;;;;;;;40.52;13.25;102256.41;4898706;29;20036;-86
2023/05/19 11:45:13;;;;;;;8.03;2.80;;;;;;;40.59;13.10;102253.66;4882566;29;20420;-86
2023/05/19 11:47:47;;;;;;;10.05;2.60;;;;;;;40.94;11.89;102246.69;4882118;29;20358;-86
2023/05/19 11:50:18;;;;;;;5.97;3.15;;;;;;;40.94;12.01;102241.00;4882226;29;20031;-87
2023/05/19 11:52:46;;;;;;;5.87;2.93;;;;;;;40.79;12.04;102237.16;4867086;29;20541;-87
2023/05/19 11:55:15;;;;;;;5.25;3.00;;;;;;;40.59;12.52;102235.75;4881856;29;20498;-87
2023/05/19 11:57:43;;;;;;;6.65;3.05;;;;;;;41.61;12.24;102236.22;4883641;29;20484;-86
2023/05/19 12:00:13;;;;;;;5.63;2.97;;;;;;;42.28;12.16;102241.84;4882096;29;20036;-86
2023/05/19 12:02:41;;;;;;;4.78;3.00;;;;;;;43.39;10.60;102241.91;4882509;29;20025;-87
2023/05/19 12:05:20;;;;;;;6.00;3.50;;;;;;;43.41;12.17;102228.06;4866938;29;20081;-87
2023/05/19 12:07:50;;;;;;;5.78;3.38;;;;;;;41.99;11.43;102221.75;4881911;29;20040;-87
2023/05/19 12:10:18;;;;;;;7.20;3.40;;;;;;;42.14;10.98;102225.47;4865734;29;20048;-87
2023/05/19 12:12:44;;;;;;;6.28;3.67;;;;;;;42.51;11.48;102219.47;4881710;29;20033;-87
2023/05/19 12:15:20;;;;;;;9.23;3.92;;;;;;;42.22;11.39;102216.56;4881810;29;20033;-87
2023/05/19 12:18:07;;;;;;;5.70;3.53;;;;;;;42.40;11.96;102218.63;4867097;29;20074;-87
2023/05/19 12:20:49;;;;;;;7.95;4.00;;;;;;;42.61;10.91;102212.16;4865914;29;20037;-87
2023/05/19 12:23:17;;;;;;;9.00;3.83;;;;;;;42.72;10.00;102210.13;4881825;29;20052;-87
2023/05/19 12:25:42;;;;;;;4.30;3.88;;;;;;;43.31;9.88;102213.81;4866124;29;20041;-87
2023/05/19 12:28:11;;;;;;;11.87;4.33;;;;;;;42.79;10.71;102206.50;4881408;29;20029;-87
2023/05/19 12:30:36;;;;;;;5.47;3.65;;;;;;;43.33;10.82;102205.63;4865701;29;20036;-87
2023/05/19 12:33:02;;;;;;;9.47;4.23;;;;;;;44.31;9.89;102204.84;4881558;29;20096;-86
2023/05/19 12:35:38;;;;;;;6.40;4.00;;;;;;;45.79;10.53;102203.47;4881412;29;20118;-87
2023/05/19 12:38:13;;;;;;;5.43;4.50;;;;;;;46.30;9.76;102194.19;4881342;29;20033;-87
2023/05/19 12:40:38;;;;;;;8.07;4.10;;;;;;;46.71;8.78;102193.94;4881220;29;20040;-87
2023/05/19 12:46:28;;;;;;;8.32;4.88;;;;;;;47.27;8.87;102178.97;4898524;29;20132;-88
2023/05/19 12:49:09;;;;;;;;;;;;;;;;;;;;;
2023/05/19 12:51:39;;;;;;;8.10;4.68;;;;;;;44.70;9.48;102170.69;4902368;29;20032;-89
2023/05/19 12:54:09;;;;;;;7.60;4.43;;;;;;;45.61;9.38;102179.94;4885311;29;20032;-89
2023/05/19 12:56:35;;;;;;;7.65;4.60;;;;;;;44.42;9.67;102173.31;4901809;29;20414;-88
2023/05/19 12:59:00;;;;;;;7.13;4.50;;;;;;;42.47;10.18;102175.88;4901702;29;20040;-89
2023/05/19 13:01:30;;;;;;;6.25;4.00;;;;;;;40.45;11.30;102168.19;4884998;29;20032;-88
2023/05/19 13:03:56;;;;;;;7.83;4.10;;;;;;;40.01;11.87;102158.38;4869749;29;20076;-88
2023/05/19 13:06:24;;;;;;;4.78;3.80;;;;;;;41.49;11.63;102157.63;4885013;29;20040;-92
2023/05/19 13:09:00;;;;;;;;;;;;;;;;;;;;;
2023/05/19 13:11:31;;;;;;;6.60;3.80;;;;;;;43.15;10.47;102151.44;4901940;29;20051;-88
2023/05/19 13:14:02;;;;;;;8.38;4.30;;;;;;;44.11;10.28;102155.13;4884494;29;20028;-88